Map

Track Data

SID SEASON NUMBER BASIN SUBBASIN NAME ISO_TIME NATURE LAT LON WMO_WIND WMO_PRES WMO_AGENCY TRACK_TYPE DIST2LAND LANDFALL IFLAG USA_AGENCY USA_ATCF_ID USA_LAT USA_LON USA_RECORD USA_STATUS USA_WIND USA_PRES USA_SSHS USA_R34_NE USA_R34_SE USA_R34_SW USA_R34_NW USA_R50_NE USA_R50_SE USA_R50_SW USA_R50_NW USA_R64_NE USA_R64_SE USA_R64_SW USA_R64_NW USA_POCI USA_ROCI USA_RMW USA_EYE TOKYO_LAT TOKYO_LON TOKYO_GRADE TOKYO_WIND TOKYO_PRES TOKYO_R50_DIR TOKYO_R50_LONG TOKYO_R50_SHORT TOKYO_R30_DIR TOKYO_R30_LONG TOKYO_R30_SHORT TOKYO_LAND CMA_LAT CMA_LON CMA_CAT CMA_WIND CMA_PRES HKO_LAT HKO_LON HKO_CAT HKO_WIND HKO_PRES NEWDELHI_LAT NEWDELHI_LON NEWDELHI_GRADE NEWDELHI_WIND NEWDELHI_PRES NEWDELHI_CI NEWDELHI_DP NEWDELHI_POCI REUNION_LAT REUNION_LON REUNION_TYPE REUNION_WIND REUNION_PRES REUNION_TNUM REUNION_CI REUNION_RMW REUNION_R34_NE REUNION_R34_SE REUNION_R34_SW REUNION_R34_NW REUNION_R50_NE REUNION_R50_SE REUNION_R50_SW REUNION_R50_NW REUNION_R64_NE REUNION_R64_SE REUNION_R64_SW REUNION_R64_NW BOM_LAT BOM_LON BOM_TYPE BOM_WIND BOM_PRES BOM_TNUM BOM_CI BOM_RMW BOM_R34_NE BOM_R34_SE BOM_R34_SW BOM_R34_NW BOM_R50_NE BOM_R50_SE BOM_R50_SW BOM_R50_NW BOM_R64_NE BOM_R64_SE BOM_R64_SW BOM_R64_NW BOM_ROCI BOM_POCI BOM_EYE BOM_POS_METHOD BOM_PRES_METHOD NADI_LAT NADI_LON NADI_CAT NADI_WIND NADI_PRES WELLINGTON_LAT WELLINGTON_LON WELLINGTON_WIND WELLINGTON_PRES DS824_LAT DS824_LON DS824_STAGE DS824_WIND DS824_PRES TD9636_LAT TD9636_LON TD9636_STAGE TD9636_WIND TD9636_PRES TD9635_LAT TD9635_LON TD9635_WIND TD9635_PRES TD9635_ROCI NEUMANN_LAT NEUMANN_LON NEUMANN_CLASS NEUMANN_WIND NEUMANN_PRES MLC_LAT MLC_LON MLC_CLASS MLC_WIND MLC_PRES USA_GUST BOM_GUST BOM_GUST_PER REUNION_GUST REUNION_GUST_PER USA_SEAHGT USA_SEARAD_NE USA_SEARAD_SE USA_SEARAD_SW USA_SEARAD_NW STORM_SPEED STORM_DIR
1893133N09138 1893 14 WP MM NOT_NAMED 1893-05-12 16:00:00 NR 9.40000 137.600 main 1153 993 __________O___ -1 9.40000 137.600 7 70 287
1893133N09138 1893 14 WP MM NOT_NAMED 1893-05-12 18:00:00 NR 10.0735 135.347 main 993 677 __________P___ -1 10.0735 135.347 7 68 287
1893133N09138 1893 14 WP MM NOT_NAMED 1893-05-12 21:00:00 NR 11.0182 132.089 main 677 381 __________P___ -1 11.0182 132.089 7 63 286
1893133N09138 1893 14 WP MM NOT_NAMED 1893-05-13 00:00:00 NR 11.8257 129.209 main 381 164 __________P___ -1 11.8257 129.209 7 52 286
1893133N09138 1893 14 WP MM NOT_NAMED 1893-05-13 03:00:00 NR 12.4436 126.965 main 164 117 __________P___ -1 12.4436 126.965 7 43 286
1893133N09138 1893 14 WP MM NOT_NAMED 1893-05-13 04:00:00 NR 12.6000 126.400 main 107 54 __________O___ -1 12.6000 126.400 3 28 286
1893133N09138 1893 14 WP MM NOT_NAMED 1893-05-13 06:00:00 NR 12.8362 125.571 main 54 44 __________P___ -1 12.8362 125.571 3 18 287
1893133N09138 1893 14 WP MM NOT_NAMED 1893-05-13 09:00:00 NR 13.0409 124.924 main 55 55 __________P___ -1 13.0409 124.924 3 9 290
1893133N09138 1893 14 WP MM NOT_NAMED 1893-05-13 12:00:00 NR 13.1326 124.719 main 65 54 __________P___ -1 13.1326 124.719 3 3 297
1893133N09138 1893 14 WP MM NOT_NAMED 1893-05-13 15:00:00 NR 13.1814 124.647 main 54 54 __________P___ -1 13.1814 124.647 3 2 299
1893133N09138 1893 14 WP MM NOT_NAMED 1893-05-13 16:00:00 NR 13.2000 124.600 main 54 22 __________O___ -1 13.2000 124.600 4 9 284
1893133N09138 1893 14 WP MM NOT_NAMED 1893-05-13 18:00:00 NR 13.2816 124.222 main 22 0 __________P___ -1 13.2816 124.222 4 12 282
1893133N09138 1893 14 WP MM NOT_NAMED 1893-05-13 21:00:00 NR 13.3973 123.629 main 0 0 __________P___ -1 13.3973 123.629 4 12 282
1893133N09138 1893 14 WP MM NOT_NAMED 1893-05-14 00:00:00 NR 13.5159 123.052 main 0 0 __________P___ -1 13.5159 123.052 4 11 283
1893133N09138 1893 14 WP MM NOT_NAMED 1893-05-14 03:00:00 NR 13.6497 122.545 main 0 0 __________P___ -1 13.6497 122.545 4 10 286
1893133N09138 1893 14 WP MM NOT_NAMED 1893-05-14 04:00:00 NR 13.7000 122.400 main 0 0 __________O___ -1 13.7000 122.400 4 8 295
1893133N09138 1893 14 WP MM NOT_NAMED 1893-05-14 06:00:00 NR 13.8183 122.168 main 0 0 __________P___ -1 13.8183 122.168 4 7 303
1893133N09138 1893 14 WP MM NOT_NAMED 1893-05-14 09:00:00 NR 14.0152 121.901 main 0 0 __________P___ -1 14.0152 121.901 4 6 312
1893133N09138 1893 14 WP MM NOT_NAMED 1893-05-14 12:00:00 NR 14.2243 121.706 main 0 0 __________P___ -1 14.2243 121.706 4 5 321
1893133N09138 1893 14 WP MM NOT_NAMED 1893-05-14 15:00:00 NR 14.4328 121.549 main 0 0 __________P___ -1 14.4328 121.549 4 5 324
1893133N09138 1893 14 WP MM NOT_NAMED 1893-05-14 16:00:00 NR 14.5000 121.500 main 0 0 __________O___ -1 14.5000 121.500 4 5 319
1893133N09138 1893 14 WP MM NOT_NAMED 1893-05-14 18:00:00 NR 14.6091 121.393 main 0 0 __________P___ -1 14.6091 121.393 4 4 318
1893133N09138 1893 14 WP MM NOT_NAMED 1893-05-14 21:00:00 NR 14.7663 121.252 main 0 0 __________P___ -1 14.7663 121.252 4 4 320
1893133N09138 1893 14 WP MM NOT_NAMED 1893-05-15 00:00:00 NR 14.9323 121.115 main 0 0 __________P___ -1 14.9323 121.115 4 5 322
1893133N09138 1893 14 WP MM NOT_NAMED 1893-05-15 03:00:00 NR 15.1261 120.960 main 0 0 __________P___ -1 15.1261 120.960 4 5 322
1893133N09138 1893 14 WP MM NOT_NAMED 1893-05-15 04:00:00 NR 15.2000 120.900 main 0 0 __________O___ -1 15.2000 120.900 4 6 319
1893133N09138 1893 14 WP MM NOT_NAMED 1893-05-15 06:00:00 NR 15.3690 120.743 main 0 0 __________P___ -1 15.3690 120.743 4 7 318
1893133N09138 1893 14 WP MM NOT_NAMED 1893-05-15 09:00:00 NR 15.6538 120.483 main 0 0 __________P___ -1 15.6538 120.483 4 8 320
1893133N09138 1893 14 WP MM NOT_NAMED 1893-05-15 12:00:00 NR 15.9652 120.216 main 0 0 __________P___ -1 15.9652 120.216 4 8 322
1893133N09138 1893 14 WP MM NOT_NAMED 1893-05-15 15:00:00 NR 16.2906 119.972 main 10 0 __________P___ -1 16.2906 119.972 4 8 325
1893133N09138 1893 14 WP MM NOT_NAMED 1893-05-15 16:00:00 NR 16.4000 119.900 main 11 11 __________O___ -1 16.4000 119.900 4 8 327
1893133N09138 1893 14 WP MM NOT_NAMED 1893-05-15 18:00:00 NR 16.6135 119.757 main 33 35 __________P___ -1 16.6135 119.757 4 8 330
1893133N09138 1893 14 WP MM NOT_NAMED 1893-05-15 21:00:00 NR 16.9401 119.573 main 70 81 __________P___ -1 16.9401 119.573 4 7 336
1893133N09138 1893 14 WP MM NOT_NAMED 1893-05-16 00:00:00 NR 17.2690 119.445 main 101 95 __________P___ -1 17.2690 119.445 4 7 346
1893133N09138 1893 14 WP MM NOT_NAMED 1893-05-16 03:00:00 NR 17.5937 119.395 main 95 95 __________P___ -1 17.5937 119.395 4 7 354
1893133N09138 1893 14 WP MM NOT_NAMED 1893-05-16 04:00:00 NR 17.7000 119.400 main 96 96 __________O___ -1 17.7000 119.400 4 7 5
1893133N09138 1893 14 WP MM NOT_NAMED 1893-05-16 06:00:00 NR 17.9187 119.432 main 101 95 __________P___ -1 17.9187 119.432 4 7 15
1893133N09138 1893 14 WP MM NOT_NAMED 1893-05-16 09:00:00 NR 18.2408 119.556 main 95 85 __________P___ -1 18.2408 119.556 4 7 26
1893133N09138 1893 14 WP MM NOT_NAMED 1893-05-16 12:00:00 NR 18.5447 119.754 main 85 77 __________P___ -1 18.5447 119.754 4 7 37
1893133N09138 1893 14 WP MM NOT_NAMED 1893-05-16 15:00:00 NR 18.8179 120.007 main 77 76 __________P___ -1 18.8179 120.007 4 7 43
1893133N09138 1893 14 WP MM NOT_NAMED 1893-05-16 16:00:00 NR 18.9000 120.100 main 76 69 __________O___ -1 18.9000 120.100 4 7 49
1893133N09138 1893 14 WP MM NOT_NAMED 1893-05-16 18:00:00 NR 19.0480 120.285 main 69 70 __________P___ -1 19.0480 120.285 4 7 54
1893133N09138 1893 14 WP MM NOT_NAMED 1893-05-16 21:00:00 NR 19.2383 120.601 main 70 70 __________P___ -1 19.2383 120.601 4 7 60
1893133N09138 1893 14 WP MM NOT_NAMED 1893-05-17 00:00:00 NR 19.4019 120.942 main 89 90 __________P___ -1 19.4019 120.942 4 7 64
1893133N09138 1893 14 WP MM NOT_NAMED 1893-05-17 03:00:00 NR 19.5512 121.288 main 119 119 __________P___ -1 19.5512 121.288 4 7 65
1893133N09138 1893 14 WP MM NOT_NAMED 1893-05-17 04:00:00 NR 19.6000 121.400 main 123 123 __________O___ -1 19.6000 121.400 4 7 62
1893133N09138 1893 14 WP MM NOT_NAMED 1893-05-17 06:00:00 NR 19.7108 121.606 main 135 135 __________P___ -1 19.7108 121.606 4 7 60
1893133N09138 1893 14 WP MM NOT_NAMED 1893-05-17 09:00:00 NR 19.8709 121.908 main 165 165 __________P___ -1 19.8709 121.908 4 6 61
1893133N09138 1893 14 WP MM NOT_NAMED 1893-05-17 12:00:00 NR 20.0210 122.206 main 178 178 __________P___ -1 20.0210 122.206 4 6 63
1893133N09138 1893 14 WP MM NOT_NAMED 1893-05-17 15:00:00 NR 20.1579 122.501 main 202 202 __________P___ -1 20.1579 122.501 4 6 64
1893133N09138 1893 14 WP MM NOT_NAMED 1893-05-17 16:00:00 NR 20.2000 122.600 main 203 203 __________O___ -1 20.2000 122.600 4 6 72
1893133N09138 1893 14 WP MM NOT_NAMED 1893-05-17 18:00:00 NR 20.2464 122.795 main 208 208 __________P___ -1 20.2464 122.795 4 6 77
1893133N09138 1893 14 WP MM NOT_NAMED 1893-05-17 21:00:00 NR 20.3029 123.088 main 228 228 __________P___ -1 20.3029 123.088 4 6 76
1893133N09138 1893 14 WP MM NOT_NAMED 1893-05-18 00:00:00 NR 20.3824 123.386 main 251 251 __________P___ -1 20.3824 123.386 4 6 68
1893133N09138 1893 14 WP MM NOT_NAMED 1893-05-18 03:00:00 NR 20.5288 123.694 main 276 276 __________P___ -1 20.5288 123.694 4 7 61
1893133N09138 1893 14 WP MM NOT_NAMED 1893-05-18 04:00:00 NR 20.6000 123.800 main 292 292 __________O___ -1 20.6000 123.800 4 8 52
1893133N09138 1893 14 WP MM NOT_NAMED 1893-05-18 06:00:00 NR 20.7800 124.037 main 322 328 __________P___ -1 20.7800 124.037 4 9 47
1893133N09138 1893 14 WP MM NOT_NAMED 1893-05-18 09:00:00 NR 21.1252 124.406 main 372 370 __________P___ -1 21.1252 124.406 4 10 42
1893133N09138 1893 14 WP MM NOT_NAMED 1893-05-18 12:00:00 NR 21.5466 124.769 main 392 387 __________P___ -1 21.5466 124.769 4 11 36
1893133N09138 1893 14 WP MM NOT_NAMED 1893-05-18 15:00:00 NR 22.0286 125.101 main 399 395 __________P___ -1 22.0286 125.101 4 12 31
1893133N09138 1893 14 WP MM NOT_NAMED 1893-05-18 16:00:00 NR 22.2000 125.200 main 402 399 __________O___ -1 22.2000 125.200 4 12 26
1893133N09138 1893 14 WP MM NOT_NAMED 1893-05-18 18:00:00 NR 22.5560 125.378 main 413 402 __________P___ -1 22.5560 125.378 4 12 22
1893133N09138 1893 14 WP MM NOT_NAMED 1893-05-18 21:00:00 NR 23.1169 125.600 main 407 398 __________P___ -1 23.1169 125.600 4 12 18
1893133N09138 1893 14 WP MM NOT_NAMED 1893-05-19 00:00:00 NR 23.7015 125.784 main 405 400 __________P___ -1 23.7015 125.784 4 12 15
1893133N09138 1893 14 WP MM NOT_NAMED 1893-05-19 03:00:00 NR 24.2995 125.947 main 401 407 __________P___ -1 24.2995 125.947 4 12 14
1893133N09138 1893 14 WP MM NOT_NAMED 1893-05-19 04:00:00 NR 24.5000 126.000 main 407 __________O___ -1 24.5000 126.000 4 12 13

Digital Typhoon Data and Search

About IBTrACS Database

This database is a web-friendly format of International Best Track Archive for Climate Stewardship (IBTrACS), a global best track data archive curated by NOAA dating back to 1842.

Updated: 2021-12-06